Time;durP1;ratioP1;P1;durP2;ratioP2;P2;SDS_P1;SDS_P2;PMS_P1;PMS_P2;Temp;Humidity;BMP_temperature;BMP_pressure;BME280_temperature;BME280_humidity;BME280_pressure;Samples;Min_cycle;Max_cycle;Signal;HPM_P1;HPM_P2
2022/06/11 00:00:38;;;;;;;;;7.00;7.00;;;;;20.79;72.19;101938.66;5062505;28;45530;-69
2022/06/11 00:03:03;;;;;;;;;6.67;6.67;;;;;20.81;71.93;101930.19;5065052;28;45383;-67
2022/06/11 00:05:28;;;;;;;;;6.00;6.00;;;;;20.75;71.73;101940.06;5071872;28;45440;-68
2022/06/11 00:07:54;;;;;;;;;3.33;3.33;;;;;20.63;72.55;101930.53;5065760;28;45325;-68
2022/06/11 00:10:19;;;;;;;;;5.00;5.00;;;;;20.63;72.83;101926.91;5063685;28;45323;-67
2022/06/11 00:12:45;;;;;;;;;5.33;5.00;;;;;20.68;72.49;101930.81;5063365;28;45326;-68
2022/06/11 00:15:10;;;;;;;;;5.00;5.00;;;;;20.62;72.75;101920.50;5073833;28;45369;-69
2022/06/11 00:17:36;;;;;;;;;4.00;4.00;;;;;20.60;73.36;101928.16;5064205;27;45211;-69
2022/06/11 00:20:01;;;;;;;;;6.00;5.00;;;;;20.67;72.72;101934.63;5072243;27;45593;-68
2022/06/11 00:22:27;;;;;;;;;7.67;6.00;;;;;20.63;73.41;101929.66;5064969;27;45955;-68
2022/06/11 00:24:52;;;;;;;;;5.00;4.00;;;;;20.65;72.40;101935.88;5071993;28;45481;-68
2022/06/11 00:27:19;;;;;;;;;4.00;4.00;;;;;20.65;72.73;101931.19;5067255;27;45675;-68
2022/06/11 00:29:46;;;;;;;;;5.00;3.00;;;;;20.60;73.03;101930.91;5070531;28;45377;-68
2022/06/11 00:32:13;;;;;;;;;6.00;6.00;;;;;20.60;73.24;101933.66;5068672;27;45267;-69
2022/06/11 00:34:40;;;;;;;;;3.67;2.33;;;;;20.58;73.23;101932.97;5087042;27;45250;-69
2022/06/11 00:37:05;;;;;;;;;3.33;3.33;;;;;20.54;72.74;101931.63;5072897;27;45237;-69
2022/06/11 00:39:35;;;;;;;;;6.67;4.33;;;;;20.50;72.89;101920.09;5072364;28;46211;-69
2022/06/11 00:42:08;;;;;;;;;5.00;5.00;;;;;20.49;73.81;101932.19;5072458;27;45365;-68
2022/06/11 00:44:34;;;;;;;;;4.00;4.00;;;;;20.44;74.07;101926.38;5071950;28;45362;-68
2022/06/11 00:47:15;;;;;;;;;6.00;6.00;;;;;20.43;73.70;101929.31;5070805;28;45325;-67
2022/06/11 00:49:43;;;;;;;;;4.33;3.33;;;;;20.41;74.71;101926.72;5071671;28;45665;-68
2022/06/11 00:52:33;;;;;;;;;3.00;3.00;;;;;20.36;74.60;101926.44;5069156;27;45404;-68
2022/06/11 00:55:05;;;;;;;;;5.00;4.33;;;;;20.29;74.37;101924.56;5074757;28;45496;-68
2022/06/11 00:57:36;;;;;;;;;5.00;3.00;;;;;20.30;74.65;101937.31;5066429;28;45326;-68
2022/06/11 01:00:09;;;;;;;;;8.00;4.00;;;;;20.32;74.46;101927.78;5076458;28;45384;-69
2022/06/11 01:02:34;;;;;;;;;3.33;3.33;;;;;20.32;74.69;101927.78;5081701;28;45660;-70
2022/06/11 01:05:02;;;;;;;;;4.00;3.00;;;;;20.19;74.18;101908.22;5075259;27;45401;-70
2022/06/11 01:07:50;;;;;;;;;5.67;5.67;;;;;20.29;73.58;101930.94;5066615;28;45536;-69
2022/06/11 01:10:21;;;;;;;;;5.00;5.00;;;;;20.27;75.10;101937.66;5061320;28;45535;-71
2022/06/11 01:12:58;;;;;;;;;4.67;4.67;;;;;20.15;75.09;101928.97;5066962;28;45308;-69
2022/06/11 01:15:31;;;;;;;;;5.33;4.00;;;;;20.10;75.36;101926.72;5070418;28;45458;-69
2022/06/11 01:18:09;;;;;;;;;4.00;4.00;;;;;20.06;76.00;101927.28;5067434;28;45432;-70
2022/06/11 01:20:47;;;;;;;;;5.00;5.00;;;;;20.03;76.15;101930.41;5074016;27;45460;-68
2022/06/11 01:23:41;;;;;;;;;7.67;5.67;;;;;20.03;76.20;101924.88;5068687;28;45474;-69
2022/06/11 01:26:24;;;;;;;;;5.00;5.00;;;;;20.03;75.97;101922.97;5063881;28;45384;-70
2022/06/11 01:28:58;;;;;;;;;5.00;5.00;;;;;20.01;75.55;101933.38;5071772;28;45462;-69
2022/06/11 01:31:34;;;;;;;;;6.33;5.00;;;;;19.93;76.69;101919.63;5074451;27;45345;-70
2022/06/11 01:34:18;;;;;;;;;7.33;6.00;;;;;19.91;76.71;101916.16;5071086;28;45487;-69
2022/06/11 01:36:47;;;;;;;;;5.00;5.00;;;;;19.86;76.97;101915.88;5073476;28;45401;-68
2022/06/11 01:39:28;;;;;;;;;6.67;5.00;;;;;19.86;76.99;101924.13;5070818;28;45443;-69
2022/06/11 01:42:36;;;;;;;;;7.00;5.00;;;;;19.83;77.42;101930.00;5058512;28;45398;-70
2022/06/11 01:45:08;;;;;;;;;3.00;1.00;;;;;19.82;77.53;101928.28;5071807;28;45332;-68
2022/06/11 01:47:35;;;;;;;;;5.33;5.33;;;;;19.81;77.92;101921.91;5064734;28;45409;-69
2022/06/11 01:50:01;;;;;;;;;5.33;5.33;;;;;19.79;77.84;101928.66;5078718;27;45496;-68
2022/06/11 01:52:51;;;;;;;;;5.00;5.00;;;;;19.76;77.52;101926.25;5064969;28;45298;-70
2022/06/11 01:55:31;;;;;;;;;6.67;6.67;;;;;19.65;78.16;101921.97;5073344;28;45312;-69
2022/06/11 01:58:14;;;;;;;;;5.67;5.67;;;;;19.66;78.16;101931.97;5067599;28;45361;-67
2022/06/11 02:00:53;;;;;;;;;7.67;6.00;;;;;19.59;78.43;101928.22;5067294;28;45335;-69
2022/06/11 02:03:26;;;;;;;;;6.00;5.67;;;;;19.64;78.90;101939.59;5066871;28;46949;-68
2022/06/11 02:05:55;;;;;;;;;6.67;6.00;;;;;19.58;79.05;101937.50;5072185;27;45542;-70
2022/06/11 02:08:29;;;;;;;;;6.00;6.00;;;;;19.54;79.72;101941.69;5071294;28;45401;-70
2022/06/11 02:11:05;;;;;;;;;7.67;6.00;;;;;19.52;80.44;101946.50;5062983;27;45266;-71
2022/06/11 02:13:54;;;;;;;;;4.33;4.33;;;;;19.53;80.04;101939.09;5068635;28;45836;-68
2022/06/11 02:16:26;;;;;;;;;6.33;6.00;;;;;19.52;79.64;101940.13;5071040;28;45378;-70
2022/06/11 02:18:54;;;;;;;;;6.67;6.67;;;;;19.49;80.26;101938.59;5069014;28;45500;-70
2022/06/11 02:21:32;;;;;;;;;5.33;4.00;;;;;19.42;80.56;101935.66;5072224;28;45381;-68
2022/06/11 02:24:06;;;;;;;;;7.67;7.67;;;;;19.45;81.00;101938.06;5069745;28;47723;-71
2022/06/11 02:26:36;;;;;;;;;7.33;6.00;;;;;19.41;81.10;101942.22;5072669;28;45396;-68
2022/06/11 02:29:05;;;;;;;;;7.67;7.00;;;;;19.34;81.46;101935.69;5070232;28;45217;-69
2022/06/11 02:31:37;;;;;;;;;10.00;8.00;;;;;19.39;81.08;101941.53;5073711;27;45388;-69
2022/06/11 02:34:05;;;;;;;;;6.33;6.33;;;;;19.36;81.50;101944.63;5070065;28;46241;-67
2022/06/11 02:36:42;;;;;;;;;9.33;9.33;;;;;19.33;81.83;101942.25;5072398;28;45328;-68
2022/06/11 02:39:09;;;;;;;;;10.67;8.33;;;;;19.33;81.55;101939.47;5069360;28;45523;-68
2022/06/11 02:41:35;;;;;;;;;9.00;8.00;;;;;19.38;80.31;101942.56;5070420;28;45270;-68
2022/06/11 02:44:01;;;;;;;;;7.67;7.67;;;;;19.36;80.92;101939.09;5069463;28;46396;-68
2022/06/11 02:46:45;;;;;;;;;6.67;6.67;;;;;19.34;80.98;101946.72;5070057;28;45390;-70
2022/06/11 02:49:19;;;;;;;;;6.67;6.67;;;;;19.30;81.16;101956.34;5067137;28;45239;-68
2022/06/11 02:51:46;;;;;;;;;8.00;6.67;;;;;19.25;82.04;101953.28;5061966;28;45444;-68
2022/06/11 02:54:11;;;;;;;;;8.00;8.00;;;;;19.17;82.29;101950.53;5075187;28;46233;-69
2022/06/11 02:56:37;;;;;;;;;5.00;5.00;;;;;19.09;82.67;101936.78;5067053;28;45845;-70
2022/06/11 02:59:04;;;;;;;;;13.00;9.00;;;;;19.09;83.09;101942.28;5072610;28;45344;-68
2022/06/11 03:01:29;;;;;;;;;9.33;9.33;;;;;19.05;83.26;101940.94;5069822;27;45318;-68
2022/06/11 03:03:55;;;;;;;;;5.67;5.67;;;;;19.07;83.06;101943.50;5071589;28;45500;-68
2022/06/11 03:06:23;;;;;;;;;9.33;8.00;;;;;19.08;83.46;101950.72;5066758;28;45814;-68
2022/06/11 03:08:48;;;;;;;;;7.67;7.67;;;;;19.08;83.73;101956.22;5085989;27;45388;-67
2022/06/11 03:11:14;;;;;;;;;9.00;9.00;;;;;19.09;84.12;101957.94;5067951;28;45316;-68
2022/06/11 03:13:40;;;;;;;;;10.67;10.67;;;;;19.13;84.08;101965.72;5068694;28;45616;-69
2022/06/11 03:16:06;;;;;;;;;8.00;7.00;;;;;19.08;84.63;101959.84;5069987;28;45425;-68
2022/06/11 03:18:32;;;;;;;;;10.00;8.33;;;;;19.12;84.35;101964.00;5067429;28;45397;-68
2022/06/11 03:20:58;;;;;;;;;10.00;10.00;;;;;19.08;84.20;101957.09;5071141;28;45520;-68
2022/06/11 03:23:23;;;;;;;;;12.33;11.33;;;;;19.12;83.99;101964.00;5069032;28;46065;-68
2022/06/11 03:25:49;;;;;;;;;10.33;8.00;;;;;19.08;84.08;101962.59;5071232;28;45317;-68
2022/06/11 03:28:19;;;;;;;;;9.67;8.33;;;;;19.11;83.70;101961.41;5065948;28;45327;-68
2022/06/11 03:30:46;;;;;;;;;8.67;7.33;;;;;19.08;83.84;101965.34;5075730;27;45451;-67
2022/06/11 03:33:12;;;;;;;;;9.33;7.00;;;;;19.07;84.10;101973.81;5065649;28;45190;-67
2022/06/11 03:35:37;;;;;;;;;9.33;8.67;;;;;19.05;84.47;101965.72;5073822;28;45325;-68
2022/06/11 03:38:03;;;;;;;;;8.33;8.00;;;;;19.06;84.68;101975.72;5065642;28;45464;-67
2022/06/11 03:40:29;;;;;;;;;6.00;6.00;;;;;19.09;83.70;101967.06;5072699;28;45345;-68
2022/06/11 03:42:54;;;;;;;;;9.33;8.00;;;;;19.03;84.44;101968.63;5063240;28;48029;-67
2022/06/11 03:45:21;;;;;;;;;11.33;10.00;;;;;19.03;84.51;101982.41;5068579;28;45339;-68
2022/06/11 03:47:46;;;;;;;;;6.67;6.67;;;;;19.05;84.59;101985.88;5080086;27;45373;-68
2022/06/11 03:50:28;;;;;;;;;9.00;8.00;;;;;19.01;84.27;101989.97;5069031;27;45473;-68
2022/06/11 03:52:54;;;;;;;;;7.33;7.33;;;;;19.07;84.62;101993.09;5063198;28;47133;-68
2022/06/11 03:55:20;;;;;;;;;9.33;9.33;;;;;18.97;84.92;101994.13;5067776;28;45294;-68
2022/06/11 03:57:46;;;;;;;;;7.00;7.00;;;;;19.05;84.43;101996.03;5065008;28;45239;-68
2022/06/11 04:00:14;;;;;;;;;7.67;7.33;;;;;19.07;84.48;102010.44;5067725;27;45521;-68
2022/06/11 04:02:40;;;;;;;;;8.00;8.00;;;;;19.00;84.81;101998.41;5062557;28;46706;-68
2022/06/11 04:05:07;;;;;;;;;11.00;9.00;;;;;19.03;84.12;102009.09;5066745;27;45271;-68
2022/06/11 04:07:33;;;;;;;;;7.67;6.00;;;;;19.03;84.79;102020.13;5062071;28;45539;-68
2022/06/11 04:09:58;;;;;;;;;10.67;10.67;;;;;19.00;85.10;102013.03;5064019;28;45708;-68
2022/06/11 04:12:24;;;;;;;;;11.00;11.00;;;;;19.01;85.09;102012.00;5062237;28;46599;-68
2022/06/11 04:14:51;;;;;;;;;10.33;10.33;;;;;19.07;85.21;102029.75;5070219;27;46409;-68
2022/06/11 04:17:25;;;;;;;;;12.67;9.00;;;;;19.06;84.40;102030.81;5065857;27;45390;-69
2022/06/11 04:19:51;;;;;;;;;11.00;11.00;;;;;19.10;84.82;102023.03;5070689;28;45399;-68
2022/06/11 04:22:17;;;;;;;;;11.00;9.33;;;;;19.19;84.13;102033.88;5066134;27;45569;-68
2022/06/11 04:24:43;;;;;;;;;11.33;11.00;;;;;19.17;84.03;102033.19;5069949;28;45250;-68
2022/06/11 04:27:11;;;;;;;;;10.00;10.00;;;;;19.11;85.66;102031.13;5067039;27;45329;-68
2022/06/11 04:29:40;;;;;;;;;11.33;11.33;;;;;19.07;86.19;102037.16;5069999;28;45446;-68
2022/06/11 04:32:09;;;;;;;;;9.00;8.00;;;;;19.09;85.68;102035.09;5069343;27;46306;-68
2022/06/11 04:34:35;;;;;;;;;7.33;6.00;;;;;19.09;85.27;102046.97;5084284;27;45289;-68
2022/06/11 04:37:01;;;;;;;;;9.00;9.00;;;;;19.07;86.33;102046.25;5069028;27;45406;-70
2022/06/11 04:39:30;;;;;;;;;11.00;9.00;;;;;19.09;86.28;102052.47;5065534;28;45313;-68
2022/06/11 04:41:56;;;;;;;;;10.33;8.33;;;;;19.16;86.23;102045.25;5054750;28;45703;-68
2022/06/11 04:44:22;;;;;;;;;14.67;11.00;;;;;19.20;86.32;102048.53;5067134;28;45336;-68
2022/06/11 04:46:48;;;;;;;;;8.00;8.00;;;;;19.15;86.09;102046.25;5067504;28;45384;-68
2022/06/11 04:49:14;;;;;;;;;10.33;8.33;;;;;19.20;86.18;102043.88;5072012;28;45413;-67
2022/06/11 04:51:39;;;;;;;;;9.33;9.33;;;;;19.23;85.72;102060.03;5065903;28;45401;-68
2022/06/11 04:54:05;;;;;;;;;9.33;9.00;;;;;19.26;86.52;102048.69;5069639;28;45409;-68
2022/06/11 04:56:31;;;;;;;;;6.33;6.33;;;;;19.35;85.91;102058.69;5066363;27;45299;-69
2022/06/11 04:58:57;;;;;;;;;10.00;9.00;;;;;19.44;85.41;102059.50;5069196;28;45353;-69
2022/06/11 05:01:23;;;;;;;;;10.67;9.00;;;;;19.49;84.89;102051.63;5067098;27;45420;-67
2022/06/11 05:03:49;;;;;;;;;12.00;10.67;;;;;19.53;84.36;102060.38;5068200;28;45450;-68
2022/06/11 05:06:17;;;;;;;;;11.00;9.67;;;;;19.49;84.92;102059.03;5066170;28;45429;-68
2022/06/11 05:08:43;;;;;;;;;10.67;10.67;;;;;19.63;84.51;102061.06;5071311;28;46138;-68
2022/06/11 05:11:09;;;;;;;;;13.00;11.00;;;;;20.07;82.88;102059.53;5073036;28;45600;-69
2022/06/11 05:13:35;;;;;;;;;7.67;7.67;;;;;20.39;79.80;102058.53;5067116;28;45439;-69
2022/06/11 05:16:01;;;;;;;;;8.33;5.33;;;;;20.39;79.59;102057.69;5068334;28;45367;-69
2022/06/11 05:18:28;;;;;;;;;13.33;12.00;;;;;20.11;80.46;102066.41;5065309;28;45391;-69
2022/06/11 05:20:54;;;;;;;;;8.00;8.00;;;;;20.11;80.44;102060.91;5069515;27;46406;-69
2022/06/11 05:23:19;;;;;;;;;9.67;9.67;;;;;20.13;80.10;102063.47;5068239;28;45344;-69
2022/06/11 05:25:46;;;;;;;;;7.33;7.33;;;;;20.14;80.41;102055.03;5073573;28;45376;-71
2022/06/11 05:28:19;;;;;;;;;12.33;10.33;;;;;20.09;80.95;102056.63;5066800;28;45456;-70
2022/06/11 05:30:45;;;;;;;;;10.67;10.67;;;;;20.16;80.50;102063.13;5075426;27;47268;-70
2022/06/11 05:33:11;;;;;;;;;9.67;8.67;;;;;20.38;79.93;102053.22;5066021;28;46812;-71
2022/06/11 05:35:37;;;;;;;;;10.33;7.67;;;;;20.58;78.56;102052.59;5075113;28;45459;-69
2022/06/11 05:38:06;;;;;;;;;11.00;9.33;;;;;20.69;77.04;102055.94;5066797;28;45440;-69
2022/06/11 05:40:38;;;;;;;;;11.00;11.00;;;;;20.90;77.74;102050.63;5074098;27;45357;-69
2022/06/11 05:43:04;;;;;;;;;11.00;10.00;;;;;21.43;74.94;102052.44;5067440;28;45461;-69
2022/06/11 05:45:35;;;;;;;;;10.00;10.00;;;;;21.25;74.08;102044.50;5071531;28;45441;-69
2022/06/11 05:48:04;;;;;;;;;11.00;9.67;;;;;21.13;74.89;102053.38;5067889;28;45402;-68
2022/06/11 05:50:33;;;;;;;;;9.00;9.00;;;;;21.12;74.57;102057.16;5076803;27;47608;-68
2022/06/11 05:53:01;;;;;;;;;10.00;8.67;;;;;21.01;74.94;102032.75;5066208;28;45467;-69
2022/06/11 05:55:29;;;;;;;;;9.33;8.33;;;;;21.19;74.70;102058.19;5078752;27;45458;-68
2022/06/11 05:57:59;;;;;;;;;9.00;9.00;;;;;21.30;74.11;102060.50;5067112;28;45553;-68
2022/06/11 06:00:28;;;;;;;;;9.33;9.33;;;;;21.22;73.47;102060.56;5073964;27;45925;-68
2022/06/11 06:02:53;;;;;;;;;11.00;10.67;;;;;21.18;74.26;102056.47;5081374;27;45439;-68
2022/06/11 06:05:23;;;;;;;;;7.00;7.00;;;;;21.11;74.28;102058.25;5073518;28;45538;-68
2022/06/11 06:07:48;;;;;;;;;12.00;12.00;;;;;21.24;74.27;102069.56;5065665;28;45584;-68
2022/06/11 06:10:14;;;;;;;;;10.00;7.67;;;;;21.22;73.79;102063.34;5082238;27;45386;-70
2022/06/11 06:12:40;;;;;;;;;9.67;7.33;;;;;21.14;74.17;102067.00;5065423;28;45480;-68
2022/06/11 06:15:09;;;;;;;;;9.00;8.67;;;;;21.15;74.18;102065.09;5073580;27;45501;-68
2022/06/11 06:17:35;;;;;;;;;9.00;9.00;;;;;21.10;74.16;102070.34;5065387;27;45130;-68
2022/06/11 06:20:00;;;;;;;;;8.33;7.33;;;;;21.21;74.82;102067.16;5072217;27;46537;-69
2022/06/11 06:22:26;;;;;;;;;11.33;7.67;;;;;21.37;73.99;102064.25;5066842;27;45280;-68
2022/06/11 06:24:51;;;;;;;;;11.00;9.67;;;;;21.59;72.67;102074.41;5071353;28;45248;-68
2022/06/11 06:27:16;;;;;;;;;9.00;8.33;;;;;21.60;72.65;102070.59;5069402;27;45364;-68
2022/06/11 06:29:41;;;;;;;;;6.00;6.00;;;;;21.48;73.11;102077.59;5071543;28;45371;-69
2022/06/11 06:32:07;;;;;;;;;7.67;7.33;;;;;21.56;73.46;102063.69;5070767;27;45377;-68
2022/06/11 06:34:32;;;;;;;;;6.00;6.00;;;;;21.64;72.59;102065.50;5069797;28;45427;-69
2022/06/11 06:36:58;;;;;;;;;10.67;10.33;;;;;21.47;73.36;102078.69;5071228;27;45414;-68
2022/06/11 06:39:23;;;;;;;;;9.33;8.33;;;;;21.49;72.96;102068.25;5066880;28;45337;-68
2022/06/11 06:41:49;;;;;;;;;6.33;6.33;;;;;21.67;72.40;102066.00;5070717;28;45591;-69
2022/06/11 06:44:16;;;;;;;;;8.67;8.33;;;;;21.73;73.08;102067.16;5066807;28;45373;-68
2022/06/11 06:46:42;;;;;;;;;7.67;7.67;;;;;21.77;72.11;102070.41;5070022;28;45400;-68
2022/06/11 06:49:08;;;;;;;;;9.00;7.33;;;;;21.84;72.39;102063.06;5071895;28;46010;-67
2022/06/11 06:51:34;;;;;;;;;11.00;9.67;;;;;22.02;70.81;102069.97;5068210;27;45273;-67
2022/06/11 06:54:00;;;;;;;;;6.67;6.33;;;;;21.96;70.68;102072.59;5071006;28;45330;-67
2022/06/11 06:56:29;;;;;;;;;10.00;9.00;;;;;22.05;69.23;102075.13;5067977;28;45314;-67
2022/06/11 06:58:57;;;;;;;;;8.33;8.33;;;;;22.03;68.42;102076.34;5070151;28;45449;-71
2022/06/11 07:01:23;;;;;;;;;9.00;8.33;;;;;22.06;68.55;102071.28;5069149;27;45301;-68
2022/06/11 07:03:48;;;;;;;;;6.00;6.00;;;;;21.86;68.11;102077.56;5069408;28;45373;-68
2022/06/11 07:06:13;;;;;;;;;9.67;8.00;;;;;21.88;68.11;102079.09;5069948;27;45420;-68
2022/06/11 07:08:38;;;;;;;;;6.00;6.00;;;;;22.13;67.10;102076.94;5069944;28;46899;-68
2022/06/11 07:11:04;;;;;;;;;5.33;5.33;;;;;22.25;65.54;102077.28;5075415;27;45230;-68
2022/06/11 07:13:29;;;;;;;;;6.00;6.00;;;;;22.09;66.41;102087.53;5068613;28;45357;-68
2022/06/11 07:15:56;;;;;;;;;6.67;5.67;;;;;22.22;66.32;102081.28;5068753;28;45250;-68
2022/06/11 07:18:29;;;;;;;;;9.33;6.33;;;;;22.38;65.63;102075.56;5065669;28;45647;-68
2022/06/11 07:20:58;;;;;;;;;6.00;6.00;;;;;22.58;65.15;102077.69;5068779;28;45538;-68
2022/06/11 07:23:49;;;;;;;;;5.00;5.00;;;;;22.83;64.64;102084.63;5068312;28;45333;-70
2022/06/11 07:26:20;;;;;;;;;8.00;7.33;;;;;22.79;64.02;102072.25;5069907;28;45183;-69
2022/06/11 07:28:55;;;;;;;;;7.67;6.00;;;;;22.58;64.75;102075.78;5068002;28;45493;-68
2022/06/11 07:31:21;;;;;;;;;8.33;8.33;;;;;22.78;64.28;102076.06;5063214;28;45350;-67
2022/06/11 07:33:48;;;;;;;;;7.67;6.00;;;;;22.64;64.18;102077.81;5068229;28;45475;-69
2022/06/11 07:36:15;;;;;;;;;10.67;9.00;;;;;22.56;63.95;102077.91;5070985;28;45711;-69
2022/06/11 07:38:41;;;;;;;;;8.33;6.33;;;;;22.44;63.05;102083.06;5066930;28;46625;-69
2022/06/11 07:41:06;;;;;;;;;10.00;7.00;;;;;22.45;62.62;102081.16;5067765;27;45370;-69
2022/06/11 07:43:32;;;;;;;;;7.00;7.00;;;;;22.42;63.69;102082.44;5068583;28;45230;-69
2022/06/11 07:45:57;;;;;;;;;8.00;4.67;;;;;22.69;62.98;102078.06;5066766;28;45260;-69
2022/06/11 07:48:23;;;;;;;;;7.33;4.67;;;;;22.69;62.93;102083.59;5064017;28;45522;-70
2022/06/11 07:50:50;;;;;;;;;5.00;5.00;;;;;22.73;63.33;102076.63;5074483;28;45390;-70
2022/06/11 07:53:18;;;;;;;;;5.00;4.00;;;;;22.97;62.31;102089.25;5066258;28;45388;-69
2022/06/11 07:55:45;;;;;;;;;4.67;4.33;;;;;23.04;61.87;102087.41;5072206;28;45209;-69
2022/06/11 07:58:13;;;;;;;;;7.00;5.33;;;;;23.07;60.98;102084.25;5064930;28;46528;-69
2022/06/11 08:00:45;;;;;;;;;5.33;5.00;;;;;23.14;60.97;102085.19;5071536;28;45440;-69
2022/06/11 08:03:10;;;;;;;;;9.33;6.00;;;;;23.15;60.15;102081.34;5065042;28;45499;-69
2022/06/11 08:05:36;;;;;;;;;8.00;5.00;;;;;23.03;60.55;102084.84;5071730;28;45296;-69
2022/06/11 08:08:02;;;;;;;;;8.00;5.00;;;;;22.76;60.87;102086.47;5062680;28;45436;-69
2022/06/11 08:10:29;;;;;;;;;5.00;3.67;;;;;22.69;61.45;102088.28;5065177;28;45408;-69
2022/06/11 08:12:55;;;;;;;;;5.67;5.33;;;;;22.60;62.30;102072.81;5064873;28;46745;-69
2022/06/11 08:15:21;;;;;;;;;6.67;6.00;;;;;22.72;62.00;102079.59;5073694;28;45511;-68
2022/06/11 08:17:46;;;;;;;;;4.33;4.33;;;;;22.85;61.16;102086.16;5063979;28;45451;-69
2022/06/11 08:20:16;;;;;;;;;6.33;5.00;;;;;22.90;60.77;102080.03;5064268;28;45251;-69
2022/06/11 08:22:41;;;;;;;;;4.00;4.00;;;;;23.04;61.87;102079.09;5063700;28;45563;-69
2022/06/11 08:25:07;;;;;;;;;14.33;9.67;;;;;22.93;61.73;102082.41;5072496;28;45488;-68
2022/06/11 08:27:33;;;;;;;;;9.33;7.33;;;;;22.98;60.82;102082.66;5064210;27;46320;-68
2022/06/11 08:29:58;;;;;;;;;5.00;4.33;;;;;22.94;61.87;102086.03;5070266;28;45462;-70
2022/06/11 08:32:24;;;;;;;;;5.33;5.33;;;;;23.22;59.82;102089.72;5065617;27;45292;-72
2022/06/11 08:34:50;;;;;;;;;6.00;5.00;;;;;23.33;58.59;102082.78;5069742;28;45352;-69
2022/06/11 08:37:16;;;;;;;;;3.00;1.33;;;;;22.88;58.84;102079.34;5067264;27;46083;-69
2022/06/11 08:39:42;;;;;;;;;14.00;14.00;;;;;23.12;59.72;102075.34;5067614;28;45424;-68
2022/06/11 08:42:35;;;;;;;;;4.33;4.33;;;;;23.06;59.06;102088.09;5066949;28;45404;-69
2022/06/11 08:45:13;;;;;;;;;7.33;7.33;;;;;23.13;60.07;102091.78;5068851;28;45471;-69
2022/06/11 08:47:47;;;;;;;;;3.67;3.67;;;;;23.18;58.60;102083.72;5063217;28;46577;-69
2022/06/11 08:50:15;;;;;;;;;4.67;4.67;;;;;23.39;58.63;102070.88;5074606;27;45508;-69
2022/06/11 08:52:41;;;;;;;;;4.00;4.00;;;;;23.68;58.11;102073.47;5063635;28;45544;-68
2022/06/11 08:55:08;;;;;;;;;4.67;3.67;;;;;23.93;56.76;102071.09;5064734;28;45439;-68
2022/06/11 08:57:33;;;;;;;;;7.67;6.00;;;;;24.12;56.47;102075.03;5062401;28;46216;-69
2022/06/11 09:00:02;;;;;;;;;5.00;3.33;;;;;24.22;56.96;102070.00;5065025;28;45444;-69
2022/06/11 09:02:59;;;;;;;;;4.33;4.00;;;;;24.47;54.52;102068.41;5061271;28;45255;-69
2022/06/11 09:05:32;;;;;;;;;7.00;6.00;;;;;24.30;54.87;102061.50;5065097;28;45465;-68
2022/06/11 09:08:42;;;;;;;;;4.67;4.00;;;;;24.27;55.22;102062.75;5067226;28;46610;-70
2022/06/11 09:11:18;;;;;;;;;5.00;4.67;;;;;24.29;55.61;102062.56;5050069;28;45392;-69
2022/06/11 09:14:09;;;;;;;;;5.00;3.33;;;;;24.04;54.10;102063.03;5069984;28;45480;-70
2022/06/11 09:16:50;;;;;;;;;3.00;3.00;;;;;24.30;53.10;102031.81;5070293;28;45373;-68
2022/06/11 09:19:25;;;;;;;;;4.67;4.67;;;;;24.72;53.41;102052.88;5069037;28;45377;-69
2022/06/11 09:22:02;;;;;;;;;8.00;6.67;;;;;25.03;54.09;102062.59;5070680;27;45376;-68
2022/06/11 09:24:42;;;;;;;;;4.00;4.00;;;;;24.90;53.20;102054.22;5070115;28;45519;-69
2022/06/11 09:27:46;;;;;;;;;4.00;4.00;;;;;25.02;52.38;102055.31;5059651;28;45410;-69
2022/06/11 09:30:19;;;;;;;;;9.00;7.67;;;;;25.43;53.01;102055.97;5063385;27;45709;-69
2022/06/11 09:32:50;;;;;;;;;8.00;4.00;;;;;25.38;51.24;102054.91;5066099;27;45192;-68
2022/06/11 09:35:50;;;;;;;;;4.67;3.67;;;;;26.15;49.85;102059.75;5074462;27;45401;-69
2022/06/11 09:38:49;;;;;;;;;5.00;5.00;;;;;26.03;48.61;102050.34;5061562;28;45283;-68
2022/06/11 09:41:21;;;;;;;;;7.33;4.00;;;;;26.00;48.78;102043.28;5067890;28;47444;-69
2022/06/11 09:44:03;;;;;;;;;5.00;5.00;;;;;25.46;49.96;102063.03;5067184;28;45424;-69
2022/06/11 09:47:04;;;;;;;;;4.00;4.00;;;;;25.03;51.05;102062.59;5066379;28;45382;-68
2022/06/11 09:50:17;;;;;;;;;4.00;4.00;;;;;25.27;50.97;102056.44;5073649;28;45443;-69
2022/06/11 09:53:17;;;;;;;;;3.00;3.00;;;;;25.62;50.79;102051.50;5053693;28;47832;-69
2022/06/11 09:55:59;;;;;;;;;4.00;4.00;;;;;25.48;49.99;102050.63;5072558;28;45482;-68
2022/06/11 09:58:42;;;;;;;;;5.00;5.00;;;;;26.05;49.89;102048.19;5066958;28;45445;-68
2022/06/11 10:01:16;;;;;;;;;5.00;5.00;;;;;26.81;47.51;102056.66;5065463;27;45506;-70
2022/06/11 10:03:52;;;;;;;;;5.67;4.33;;;;;26.69;47.00;102051.78;5045458;28;45634;-68
2022/06/11 10:06:29;;;;;;;;;4.67;3.33;;;;;26.08;47.35;102051.38;5070131;27;45262;-69
2022/06/11 10:09:12;;;;;;;;;6.00;4.33;;;;;25.79;48.74;102058.31;5048783;28;45330;-69
2022/06/11 10:11:44;;;;;;;;;51.25;42.25;;;;;26.15;48.77;102049.47;5064444;28;45285;-69
2022/06/11 10:14:31;;;;;;;;;44.25;34.75;;;;;26.37;48.05;102046.41;5055047;28;47116;-69
2022/06/11 10:17:02;;;;;;;;;11.00;11.00;;;;;26.94;46.48;102046.31;5068361;28;45546;-69
2022/06/11 10:19:49;;;;;;;;;52.00;40.75;;;;;27.26;46.89;102049.03;5066550;28;45534;-68
2022/06/11 10:22:22;;;;;;;;;20.50;19.00;;;;;27.45;45.72;102048.91;5062291;28;45330;-68
2022/06/11 10:25:00;;;;;;;;;15.33;12.33;;;;;28.13;43.69;102034.00;5067471;28;45593;-69
2022/06/11 10:27:28;;;;;;;;;3.67;2.33;;;;;27.85;42.42;102046.59;5063065;28;45462;-69
2022/06/11 10:30:02;;;;;;;;;4.67;4.67;;;;;28.10;42.90;102040.94;5066766;28;45452;-69
2022/06/11 10:32:35;;;;;;;;;5.00;5.00;;;;;28.71;41.50;102041.88;5064068;28;45434;-69
2022/06/11 10:35:13;;;;;;;;;3.67;2.33;;;;;28.38;41.72;102045.97;5072678;28;45499;-69
2022/06/11 10:37:47;;;;;;;;;3.00;3.00;;;;;27.88;42.11;102039.69;5066818;27;45499;-69
2022/06/11 10:40:49;;;;;;;;;5.00;3.67;;;;;28.58;41.06;102040.97;5072648;27;45405;-69
2022/06/11 10:43:24;;;;;;;;;5.00;5.00;;;;;29.50;41.06;102037.88;5025918;28;47126;-69
2022/06/11 10:45:49;;;;;;;;;6.00;5.00;;;;;29.44;39.73;102027.63;5064833;28;46261;-67
2022/06/11 10:48:22;;;;;;;;;4.00;4.00;;;;;29.33;41.39;102041.34;5066862;28;45420;-69
2022/06/11 10:50:48;;;;;;;;;5.33;4.00;;;;;29.80;39.12;102039.44;5076279;27;45403;-68
2022/06/11 10:53:23;;;;;;;;;4.00;4.00;;;;;29.11;39.52;102043.00;5067671;28;45358;-67
2022/06/11 10:55:51;;;;;;;;;4.67;4.67;;;;;29.42;39.28;102045.53;5066440;28;45244;-68
2022/06/11 10:58:31;;;;;;;;;5.00;5.00;;;;;29.50;40.15;102047.13;5066643;28;45739;-68
2022/06/11 11:01:10;;;;;;;;;7.00;6.00;;;;;30.09;37.88;102026.41;5055709;28;45386;-68
2022/06/11 11:04:23;;;;;;;;;5.33;4.00;;;;;29.71;38.15;102037.25;5067473;28;45218;-67
2022/06/11 11:07:07;;;;;;;;;3.33;3.33;;;;;29.14;38.88;102041.69;5062640;27;64195;-67
2022/06/11 11:09:33;;;;;;;;;5.00;4.00;;;;;29.44;38.71;102036.03;5075162;28;45507;-69
2022/06/11 11:12:01;;;;;;;;;8.00;5.33;;;;;29.12;39.22;102043.84;5059118;28;45448;-69
2022/06/11 11:14:35;;;;;;;;;4.00;4.00;;;;;29.20;38.23;102035.97;5068764;28;45427;-68
2022/06/11 11:17:03;;;;;;;;;5.00;4.00;;;;;29.35;38.09;102033.59;5058576;28;46600;-69
2022/06/11 11:19:39;;;;;;;;;5.67;5.67;;;;;29.69;38.20;102031.88;5066564;28;45341;-69
2022/06/11 11:22:04;;;;;;;;;7.00;7.00;;;;;30.23;37.42;102024.16;5057495;28;45400;-70
2022/06/11 11:24:35;;;;;;;;;6.67;6.67;;;;;30.25;37.44;102027.53;5066674;28;45665;-69
2022/06/11 11:27:14;;;;;;;;;5.67;5.00;;;;;29.99;37.48;102017.75;5056898;28;45345;-69
2022/06/11 11:29:50;;;;;;;;;5.67;4.33;;;;;30.51;38.19;102028.97;5068536;28;45516;-69
2022/06/11 11:32:30;;;;;;;;;4.00;4.00;;;;;30.62;35.92;102028.06;5068654;27;45372;-69
2022/06/11 11:34:55;;;;;;;;;3.00;3.00;;;;;31.10;35.16;102019.19;5071869;28;45533;-69
2022/06/11 11:37:31;;;;;;;;;4.67;3.67;;;;;31.36;34.98;102028.00;5067051;27;46304;-70
2022/06/11 11:40:00;;;;;;;;;4.00;4.00;;;;;31.54;33.52;102019.31;5071363;28;45326;-69